Jackson, TN (38301)

6:08 AM CST on March 01, 2015 (GMT -0600)
Union University | Change Station
CLOSE
Current Station
Personal Weather Station
Location: Jackson, TN
Elevation: 476 ft
Nearby Weather Stations

Elev 476 ft 35.68 °N, 88.86 °W | Updated 13 minutes ago

Overcast
Overcast
40.5 °F
Feels Like 40 °F
N
0.0
Wind Variable Wind from ENE

Today
High -- | Low -- °F
--% Chance of Precip.
Yesterday
High -- | Low -- °F
Precip. -- in
6:25 AM 5:50 PM
Waxing Gibbous, 84% visible
Pressure 30.34 in
Visibility 10.0 miles
Clouds Overcast 1700 ft
Windchill 40 °F
Dew Point 27 °F
Humidity 59%
Rainfall 0.00 in
Snow Depth Not available.
UV 0 out of 12
Pollen 4.90 out of 12
Air Quality Not available.
Flu Activity Not available.
METAR KMKL 011153Z AUTO 00000KT 10SM OVC017 04/M03 A3034 RMK AO2 SLP274 T00441028 10044 20033 55002

More Conditions Fewer Conditions

Pressure 30.34 in
Visibility 10.0 miles
Clouds Overcast 1700 ft
Windchill 40 °F
Dew Point 27 °F
Humidity 59%
Rainfall 0.00 in
Snow Depth Not available.
UV 0 out of 12
Pollen 4.90 out of 12
Air Quality Not available.
Flu Activity Not available.
METAR KMKL 011153Z AUTO 00000KT 10SM OVC017 04/M03 A3034 RMK AO2 SLP274 T00441028 10044 20033 55002

More Conditions Fewer Conditions

10-Day Weather Forecast

Almanac

Astronomy

Mar. 01, 2015 Rise Set
Actual Time
Civil Twilight
Nautical Twilight
Astronomical Twilight
Moon
Length of Visible Light
Length of Day
Tomorrow will be .
, % of the Moon is Illuminated

Today's Extremes

State Highs State Lows

Community

WunderPhotos

Upload Photos

1,801,362 photos uploaded!

WunderBlogs® & News

Nearby

Air Quality

  Air Quality AQ Index Pollutant
Not available.

Snow Depth

Station Depth Elevation

Earthquake Activity

City Distance Mag. Time & Date
Minimum magnitude displayed is 2.5.

Coastal Water Temperatures

Place Temperature

Nearby Weather Stations